KLRJ

Le Mars Municipal Airport

Le Mars, Iowa, USA
METAR KLRJ 182135Z AUTO 15005KT 10SM CLR 27/18 A3000 RMK AO2
Observed Flight Rules
Aug-18 @ 21:35 UTC (17 minutes ago) Visual Flight Rules
Wind Visibility Clouds
150° at 5 knots 10 miles
  • Clear skies
Temperatures Readings
Current 27°C / 81°F
Dewpoint 18°C / 64°F
Humidity 58%
Altimeter 30" Hg
Pressure 1016 hPa
Elevation 365
METAR KLRJ 182135Z AUTO 15005KT 10SM CLR 27/18 A3000 RMK AO2
Observed Flight Rules
Aug-18 @ 21:35 UTC
(17 minutes ago)
VFR
Wind Visibility
150° at 5 knots 10 miles
Clouds
  • Clear skies
Temperature Dewpoint
27°C / 81°F 18°C / 64°F
Humidity Altimeter Pressure
58% 30" Hg 1016 hPa